Aérodrome :
LOGIN :

S'inscrire | Disclaimer

   EN    FR    IT 

 










Légende :    VFR   VFR Marginal   IFR   IFR Intensif   IFR Très Intensif
Visi : 
Plafond : 
>= 8 km
>= 3000ft
5 à 8 km
1000 à 3000 ft
1500m à 5 km
500 à 1000 ft
800 à 1500m
200 à 500 ft
< 800m
< 200 ft
Symboles :   Orages  Brouillard  Fortes neiges  Fortes précipitations  Vent > 20 kt
SIGMETs :   Divers  Orages  Givrage  Turbulence  Onde Orograph.  Cendres Volcan.







- Altitude de l'aérodrome : 13 ft
- Code IATA : SNR
- Voir les cartes d'approche


LFRZ - St-Nazaire

DERNIER METAR :
  • 301230Z AUTO 23013KT 8000 RA SCT012/// BKN024/// BKN034/// ///CB 10/08 Q0997 TEMPO 22015G30KT 2000 TSRA BKN014 BKN040CB

METARs EXPIRÉS :
  • 301200Z AUTO 24013KT 7000 RA FEW010/// BKN016/// BKN024/// ///CB 10/08 Q0997 TEMPO 22015G30KT 2000 TSRA BKN014 BKN040CB
  • 301130Z AUTO 19008KT 170V230 9999 -RA SCT042/// OVC052/// ///TCU 13/09 Q0997 TEMPO 22015G30KT 2000 TSRA BKN014 BKN040CB
  • 301100Z AUTO 18007KT 9999 ///TCU 13/09 Q0997 TEMPO 22015G30KT 4000 TSRA BKN030CB
  • 301030Z AUTO 17008KT CAVOK 13/09 Q0997 TEMPO 22015G30KT 4000 TSRA BKN030CB
  • 301000Z AUTO 19008KT 9999 FEW024 OVC060 14/09 Q0997 TEMPO 22015G30KT 4000 RA BKN014 BKN040CB

TAF TAF LFRZ
Valide du 30 à 12h jusqu'au 01 à 12h UTC


301100Z 3012/0112 22012KT 9999 SCT018 BKN040
TEMPO 3012/3024 22015G30KT 4000 RA BKN014 BKN040CB
PROB40
TEMPO 3012/3022 2000 TSRA
FM010900 24014G24KT 9999 BKN050
Pas de NOTAMs connus pour ce terrain.
1 SIGMET publié pour la FIR Brest (LFRR) :
 
Turbulence forte
LFRR SIGMET 6 VALID 301200/301600 LFPW
LFRR BREST FIR/UIR SEV TURB FCST S OF LINE N4545 W00145 - N4600 W00800 SFC/FL070 MOV E 15KT NC=



MET'MAP, la Météo Aéronautique d'un coup d'oeil ! - Copyright ORBIFLY Décembre 2007 - Disclaimer

ORBIFLY MET'MAP TEAM :

Programmation & Développement : Alexandra Zaïnal
Conception & Développement : Baudouin d'Aumeries
Co-Programmation & Développement : Marc-Olivier Méhu
Soutien technique & logistique : Manuel Goepfert

Contact : metmap@orbifly.com




SOURCES & CREDITS :

   NOAA